createdAt,value
2023-03-20T00:01:50.574Z,91.20
2023-03-20T00:03:56.094Z,91.20
2023-03-20T00:06:01.037Z,91.10
2023-03-20T00:08:06.142Z,91.00
2023-03-20T00:10:12.684Z,91.10
2023-03-20T00:12:27.274Z,90.90
2023-03-20T00:14:36.729Z,90.90
2023-03-20T00:16:44.623Z,91.00
2023-03-20T00:18:49.974Z,90.90
2023-03-20T00:20:55.408Z,90.50
2023-03-20T00:23:00.713Z,90.30
2023-03-20T00:25:05.843Z,90.20
2023-03-20T00:27:16.371Z,90.30
2023-03-20T00:29:26.066Z,90.40
2023-03-20T00:31:37.371Z,90.50
2023-03-20T00:33:42.936Z,90.50
2023-03-20T00:35:47.864Z,90.50
2023-03-20T00:37:54.444Z,90.30
2023-03-20T00:39:59.317Z,90.00
2023-03-20T00:42:07.650Z,90.00
2023-03-20T00:44:24.478Z,90.00
2023-03-20T00:46:30.856Z,90.20
2023-03-20T00:48:40.597Z,90.50
2023-03-20T00:50:45.757Z,90.30
2023-03-20T00:52:51.790Z,90.50
2023-03-20T00:54:56.679Z,90.50
2023-03-20T00:57:05.566Z,90.40
2023-03-20T00:59:18.745Z,90.10
2023-03-20T01:01:23.735Z,90.30
2023-03-20T01:03:30.576Z,90.30
2023-03-20T01:05:38.055Z,90.60
2023-03-20T01:07:43.231Z,90.80
2023-03-20T01:09:48.384Z,90.80
2023-03-20T01:11:54.195Z,90.80
2023-03-20T01:13:59.382Z,90.60
2023-03-20T01:16:04.300Z,90.40
2023-03-20T01:18:09.926Z,90.80
2023-03-20T01:20:26.386Z,90.60
2023-03-20T01:22:34.134Z,90.30
2023-03-20T01:24:40.741Z,90.30
2023-03-20T01:26:47.779Z,90.40
2023-03-20T01:28:54.286Z,90.60
2023-03-20T01:31:00.173Z,91.00
2023-03-20T01:33:15.077Z,91.30
2023-03-20T01:35:25.399Z,91.30
2023-03-20T01:37:33.775Z,91.00
2023-03-20T01:39:41.841Z,90.80
2023-03-20T01:41:47.462Z,90.80
2023-03-20T01:43:53.997Z,90.90
2023-03-20T01:46:06.361Z,91.10
2023-03-20T01:48:19.256Z,91.00
2023-03-20T01:50:32.052Z,90.90
2023-03-20T01:52:58.209Z,90.90
2023-03-20T01:55:04.404Z,90.60
2023-03-20T01:57:15.633Z,90.90
2023-03-20T01:59:27.693Z,91.10
2023-03-20T02:01:33.273Z,91.50
2023-03-20T02:03:38.409Z,91.80
2023-03-20T02:05:59.889Z,91.70
2023-03-20T02:08:30.363Z,91.70
2023-03-20T02:10:40.574Z,91.90
2023-03-20T02:12:56.621Z,91.50
2023-03-20T02:15:10.220Z,91.60
2023-03-20T02:17:33.551Z,91.60
2023-03-20T02:20:01.400Z,91.50
2023-03-20T02:22:41.580Z,91.40
2023-03-20T02:25:26.000Z,91.40
2023-03-20T02:27:37.491Z,91.50
2023-03-20T02:30:28.760Z,91.50
2023-03-20T02:33:19.434Z,91.50
2023-03-20T02:36:22.506Z,91.60
2023-03-20T02:39:01.696Z,91.20
2023-03-20T02:41:16.761Z,91.40
2023-03-20T02:43:27.481Z,91.20
2023-03-20T02:45:40.967Z,91.10
2023-03-20T02:47:58.843Z,91.20
2023-03-20T02:50:16.478Z,91.20
2023-03-20T02:52:29.169Z,91.40
2023-03-20T02:54:45.188Z,91.40
2023-03-20T02:57:01.758Z,91.10
2023-03-20T02:59:18.965Z,91.20
2023-03-20T03:01:29.144Z,91.10
2023-03-20T03:03:41.515Z,90.80
2023-03-20T03:05:53.462Z,91.20
2023-03-20T03:08:02.790Z,91.20
2023-03-20T03:10:20.398Z,91.30
2023-03-20T03:12:31.159Z,91.30
2023-03-20T03:14:44.072Z,91.50
2023-03-20T03:16:54.793Z,91.40
2023-03-20T03:19:08.082Z,91.40
2023-03-20T03:21:16.667Z,91.30
2023-03-20T03:23:32.612Z,91.30
2023-03-20T03:25:44.124Z,91.40
2023-03-20T03:27:54.741Z,91.40
2023-03-20T03:30:05.999Z,91.50
2023-03-20T03:32:28.841Z,91.30
2023-03-20T03:34:34.640Z,91.30
2023-03-20T03:36:49.302Z,91.20
2023-03-20T03:39:01.335Z,91.20
2023-03-20T03:41:23.384Z,91.30
2023-03-20T03:43:36.767Z,91.30
2023-03-20T03:45:49.062Z,91.20
2023-03-20T03:47:59.618Z,91.30
2023-03-20T03:50:12.994Z,91.30
2023-03-20T03:52:23.397Z,91.30
2023-03-20T03:54:33.498Z,91.30
2023-03-20T03:57:05.315Z,91.20
2023-03-20T03:59:16.273Z,91.40
2023-03-20T04:01:25.695Z,91.40
2023-03-20T04:03:38.000Z,91.50
2023-03-20T04:05:47.573Z,91.50
2023-03-20T04:07:59.682Z,91.50
2023-03-20T04:10:04.540Z,91.50
2023-03-20T04:12:38.075Z,91.60
2023-03-20T04:14:47.081Z,91.40
2023-03-20T04:16:59.517Z,91.60
2023-03-20T04:19:05.917Z,91.60
2023-03-20T04:21:12.374Z,91.50
2023-03-20T04:23:18.120Z,91.50
2023-03-20T04:25:27.505Z,91.60
2023-03-20T04:27:37.075Z,91.60
2023-03-20T04:29:49.167Z,91.70
2023-03-20T04:32:23.514Z,91.50
2023-03-20T04:34:48.328Z,91.80
2023-03-20T04:37:08.580Z,91.80
2023-03-20T04:39:33.741Z,91.80
2023-03-20T04:41:40.014Z,91.90
2023-03-20T04:43:48.421Z,91.70
2023-03-20T04:45:53.439Z,91.80
2023-03-20T04:47:59.741Z,91.80
2023-03-20T04:50:05.885Z,91.90
2023-03-20T04:52:11.697Z,92.00
2023-03-20T04:54:20.106Z,92.00
2023-03-20T04:56:25.263Z,91.80
2023-03-20T04:58:47.975Z,92.00
2023-03-20T05:00:54.338Z,92.00
2023-03-20T05:03:00.382Z,92.10
2023-03-20T05:05:06.084Z,92.10
2023-03-20T05:07:13.703Z,92.20
2023-03-20T05:09:28.474Z,92.10
2023-03-20T05:11:34.898Z,92.10
2023-03-20T05:14:17.681Z,92.30
2023-03-20T05:16:28.089Z,92.30
2023-03-20T05:18:43.689Z,92.20
2023-03-20T05:21:10.652Z,92.20
2023-03-20T05:23:32.882Z,92.30
2023-03-20T05:26:00.946Z,92.10
2023-03-20T05:28:24.618Z,92.20
2023-03-20T05:30:50.536Z,92.00
2023-03-20T05:33:19.300Z,91.90
2023-03-20T05:35:50.590Z,92.20
2023-03-20T05:38:14.371Z,92.10
2023-03-20T05:40:35.966Z,92.20
2023-03-20T05:43:07.049Z,92.30
2023-03-20T05:45:28.733Z,92.20
2023-03-20T05:47:53.956Z,92.20
2023-03-20T05:50:22.982Z,92.20
2023-03-20T05:52:50.197Z,92.30
2023-03-20T05:55:27.704Z,92.30
2023-03-20T05:57:52.859Z,92.40
2023-03-20T06:00:07.040Z,92.20
2023-03-20T06:02:17.557Z,92.10
2023-03-20T06:04:35.273Z,92.10
2023-03-20T06:06:54.694Z,91.90
2023-03-20T06:09:01.097Z,91.90
2023-03-20T06:11:06.686Z,91.80
2023-03-20T06:13:14.842Z,91.70
2023-03-20T06:15:20.599Z,91.50
2023-03-20T06:17:32.772Z,91.40
2023-03-20T06:19:44.029Z,91.30
2023-03-20T06:21:49.264Z,91.40
2023-03-20T06:23:58.158Z,91.20
2023-03-20T06:26:03.126Z,91.10
2023-03-20T06:28:17.235Z,91.10
2023-03-20T06:30:23.563Z,91.10
2023-03-20T06:32:29.113Z,91.10
2023-03-20T06:34:37.825Z,91.20
2023-03-20T06:36:45.662Z,91.30
2023-03-20T06:38:58.700Z,91.20
2023-03-20T06:41:05.595Z,91.40
2023-03-20T06:43:12.369Z,91.20
2023-03-20T06:45:26.490Z,91.30
2023-03-20T06:47:35.468Z,91.10
2023-03-20T06:49:42.526Z,91.10
2023-03-20T06:51:51.462Z,91.10
2023-03-20T06:54:02.351Z,91.20
2023-03-20T06:56:10.972Z,90.90
2023-03-20T06:58:18.790Z,90.90
2023-03-20T07:00:30.013Z,90.90
2023-03-20T07:02:36.137Z,90.80
2023-03-20T07:04:41.701Z,90.40
2023-03-20T07:06:47.186Z,90.60
2023-03-20T07:08:55.160Z,90.40
2023-03-20T07:11:01.495Z,90.50
2023-03-20T07:13:07.212Z,90.60
2023-03-20T07:15:15.346Z,90.50
2023-03-20T07:17:20.301Z,90.80
2023-03-20T07:19:26.278Z,90.80
2023-03-20T07:21:35.057Z,90.90
2023-03-20T07:23:40.156Z,90.90
2023-03-20T07:25:48.939Z,90.90
2023-03-20T07:27:57.050Z,90.90
2023-03-20T07:30:04.908Z,90.70
2023-03-20T07:32:10.383Z,91.00
2023-03-20T07:34:19.655Z,91.10
2023-03-20T07:36:24.949Z,91.20
2023-03-20T07:38:29.963Z,91.40
2023-03-20T07:40:48.986Z,91.20
2023-03-20T07:42:55.117Z,91.50
2023-03-20T07:45:20.508Z,91.50
2023-03-20T07:47:25.711Z,91.20
2023-03-20T07:49:30.649Z,91.10
2023-03-20T07:51:35.937Z,91.00
2023-03-20T07:53:41.572Z,91.20
2023-03-20T07:55:50.009Z,91.10
2023-03-20T07:57:54.904Z,90.70
2023-03-20T07:59:59.960Z,90.50
2023-03-20T08:02:04.865Z,90.40
2023-03-20T08:04:09.873Z,90.70
2023-03-20T08:06:14.750Z,90.20
2023-03-20T08:08:19.904Z,90.00
2023-03-20T08:10:24.850Z,89.60
2023-03-20T08:12:32.337Z,89.80
2023-03-20T08:14:38.701Z,89.50
2023-03-20T08:16:44.058Z,89.70
2023-03-20T08:18:50.528Z,89.50
2023-03-20T08:20:55.451Z,89.60
2023-03-20T08:23:00.329Z,89.20
2023-03-20T08:25:05.231Z,89.40
2023-03-20T08:27:10.448Z,89.30
2023-03-20T08:29:19.623Z,89.50
2023-03-20T08:31:24.609Z,89.50
2023-03-20T08:33:29.572Z,89.60
2023-03-20T08:35:34.834Z,89.80
2023-03-20T08:37:40.504Z,89.80
2023-03-20T08:39:45.433Z,90.30
2023-03-20T08:41:50.311Z,90.30
2023-03-20T08:43:55.213Z,90.20
2023-03-20T08:46:02.702Z,90.30
2023-03-20T08:48:08.157Z,90.20
2023-03-20T08:50:14.797Z,90.60
2023-03-20T08:52:19.733Z,90.20
2023-03-20T08:54:25.284Z,90.00
2023-03-20T08:56:30.534Z,90.10
2023-03-20T08:58:35.456Z,90.20
2023-03-20T09:00:40.316Z,89.80
2023-03-20T09:02:47.812Z,89.90
2023-03-20T09:04:52.714Z,90.60
2023-03-20T09:06:57.673Z,90.70
2023-03-20T09:09:03.685Z,90.50
2023-03-20T09:11:09.841Z,90.80
2023-03-20T09:13:26.605Z,90.60
2023-03-20T09:15:32.248Z,90.30
2023-03-20T09:17:37.145Z,90.10
2023-03-20T09:19:45.129Z,89.90
2023-03-20T09:21:50.068Z,89.90
2023-03-20T09:23:55.382Z,89.60
2023-03-20T09:26:00.841Z,89.90
2023-03-20T09:28:06.065Z,90.10
2023-03-20T09:30:14.687Z,89.80
2023-03-20T09:32:19.568Z,89.70
2023-03-20T09:34:24.791Z,89.80
2023-03-20T09:36:33.256Z,89.80
2023-03-20T09:38:38.409Z,89.80
2023-03-20T09:40:57.037Z,89.40
2023-03-20T09:43:12.480Z,89.40
2023-03-20T09:45:25.788Z,89.20
2023-03-20T09:47:38.861Z,89.40
2023-03-20T09:49:56.050Z,89.00
2023-03-20T09:52:11.077Z,88.40
2023-03-20T09:54:25.374Z,88.60
2023-03-20T09:56:33.210Z,88.50
2023-03-20T09:58:40.312Z,88.90
2023-03-20T10:00:49.416Z,88.50
2023-03-20T10:03:01.380Z,88.70
2023-03-20T10:05:18.660Z,88.60
2023-03-20T10:07:28.494Z,88.50
2023-03-20T10:09:34.717Z,88.90
2023-03-20T10:12:09.221Z,88.90
2023-03-20T10:14:27.039Z,90.00
2023-03-20T10:16:52.101Z,89.70
2023-03-20T10:19:06.450Z,89.60
2023-03-20T10:21:19.106Z,89.60
2023-03-20T10:23:35.965Z,89.70
2023-03-20T10:25:48.688Z,90.10
2023-03-20T10:28:00.700Z,90.60
2023-03-20T10:30:26.548Z,89.60
2023-03-20T10:32:39.548Z,90.20
2023-03-20T10:34:57.201Z,90.90
2023-03-20T10:37:23.382Z,90.00
2023-03-20T10:39:50.424Z,90.20
2023-03-20T10:41:59.295Z,90.50
2023-03-20T10:44:04.935Z,89.70
2023-03-20T10:46:13.990Z,89.50
2023-03-20T10:48:36.703Z,89.80
2023-03-20T10:50:47.943Z,89.70
2023-03-20T10:52:57.285Z,88.30
2023-03-20T10:55:06.749Z,89.30
2023-03-20T10:57:20.956Z,88.60
2023-03-20T10:59:29.043Z,87.40
2023-03-20T11:01:35.914Z,87.50
2023-03-20T11:03:44.452Z,88.60
2023-03-20T11:06:06.653Z,87.00
2023-03-20T11:08:17.553Z,87.40
2023-03-20T11:10:22.568Z,86.80
2023-03-20T11:12:27.417Z,85.40
2023-03-20T11:14:38.319Z,86.90
2023-03-20T11:16:43.453Z,83.60
2023-03-20T11:18:52.859Z,84.90
2023-03-20T11:21:00.259Z,85.10
2023-03-20T11:23:09.580Z,83.40
2023-03-20T11:25:27.705Z,81.90
2023-03-20T11:27:35.907Z,83.30
2023-03-20T11:29:45.185Z,85.00
2023-03-20T11:31:50.798Z,82.70
2023-03-20T11:34:27.020Z,83.50
2023-03-20T11:36:38.059Z,84.30
2023-03-20T11:38:54.856Z,84.20
2023-03-20T11:41:00.219Z,83.40
2023-03-20T11:43:14.086Z,83.80
2023-03-20T11:45:21.005Z,84.00
2023-03-20T11:47:30.323Z,85.60
2023-03-20T11:49:50.578Z,83.20
2023-03-20T11:51:56.580Z,83.20
2023-03-20T11:54:05.456Z,82.60
2023-03-20T11:56:14.487Z,81.40
2023-03-20T11:58:20.290Z,80.90
2023-03-20T12:00:29.240Z,80.50
2023-03-20T12:02:34.970Z,79.60
2023-03-20T12:04:45.731Z,80.30
2023-03-20T12:06:56.951Z,79.90
2023-03-20T12:09:06.648Z,79.00
2023-03-20T12:11:28.312Z,78.90
2023-03-20T12:13:38.561Z,79.50
2023-03-20T12:15:49.341Z,79.00
2023-03-20T12:17:59.319Z,77.60
2023-03-20T12:20:18.697Z,79.90
2023-03-20T12:22:29.818Z,80.10
2023-03-20T12:24:44.626Z,79.40
2023-03-20T12:26:59.435Z,80.70
2023-03-20T12:29:12.932Z,81.30
2023-03-20T12:31:27.823Z,81.80
2023-03-20T12:33:43.691Z,80.30
2023-03-20T12:35:56.728Z,80.90
2023-03-20T12:38:02.537Z,79.30
2023-03-20T12:40:15.126Z,79.20
2023-03-20T12:42:38.331Z,77.10
2023-03-20T12:44:51.171Z,77.60
2023-03-20T12:47:15.070Z,77.50
2023-03-20T12:49:37.297Z,74.90
2023-03-20T12:51:59.320Z,75.70
2023-03-20T12:54:21.959Z,76.70
2023-03-20T12:56:46.310Z,75.20
2023-03-20T12:59:00.669Z,77.50
2023-03-20T13:01:11.377Z,75.70
2023-03-20T13:03:36.100Z,76.50
2023-03-20T13:05:49.524Z,76.50
2023-03-20T13:08:32.564Z,76.30
2023-03-20T13:10:40.162Z,77.20
2023-03-20T13:13:05.468Z,75.50
2023-03-20T13:15:32.847Z,75.90
2023-03-20T13:17:47.360Z,76.70
2023-03-20T13:20:10.345Z,75.50
2023-03-20T13:22:23.441Z,75.50
2023-03-20T13:24:42.396Z,75.00
2023-03-20T13:26:55.058Z,74.80
2023-03-20T13:29:09.140Z,74.60
2023-03-20T13:31:27.585Z,75.20
2023-03-20T13:33:50.626Z,74.60
2023-03-20T13:36:01.989Z,74.00
2023-03-20T13:38:17.079Z,72.60
2023-03-20T13:40:29.365Z,73.40
2023-03-20T13:42:39.988Z,74.40
2023-03-20T13:44:46.517Z,76.60
2023-03-20T13:46:56.873Z,75.90
2023-03-20T13:49:09.967Z,75.80
2023-03-20T13:51:27.690Z,75.80
2023-03-20T13:53:40.568Z,76.00
2023-03-20T13:55:58.395Z,75.40
2023-03-20T13:58:22.267Z,75.10
2023-03-20T14:00:36.138Z,74.90
2023-03-20T14:02:59.110Z,75.60
2023-03-20T14:05:13.703Z,75.50
2023-03-20T14:07:34.445Z,74.30
2023-03-20T14:09:40.986Z,74.70
2023-03-20T14:11:49.171Z,74.60
2023-03-20T14:13:59.075Z,74.20
2023-03-20T14:16:10.311Z,75.10
2023-03-20T14:18:19.647Z,76.00
2023-03-20T14:20:32.643Z,75.90
2023-03-20T14:22:41.641Z,76.60
2023-03-20T14:25:03.154Z,77.00
2023-03-20T14:27:29.788Z,76.90
2023-03-20T14:29:41.709Z,77.90
2023-03-20T14:31:52.241Z,76.60
2023-03-20T14:34:09.917Z,77.40
2023-03-20T14:36:24.916Z,77.80
2023-03-20T14:38:34.021Z,77.90
2023-03-20T14:40:47.299Z,77.90
2023-03-20T14:43:00.136Z,77.80
2023-03-20T14:45:35.454Z,78.00
2023-03-20T14:47:49.713Z,78.40
2023-03-20T14:50:00.195Z,78.90
2023-03-20T14:52:30.246Z,78.50
2023-03-20T14:54:36.118Z,78.30
2023-03-20T14:56:42.756Z,78.30
2023-03-20T14:58:58.225Z,79.00
2023-03-20T15:01:07.468Z,78.30
2023-03-20T15:03:17.148Z,78.70
2023-03-20T15:05:31.701Z,77.90
2023-03-20T15:07:41.656Z,78.60
2023-03-20T15:09:49.616Z,78.50
2023-03-20T15:11:55.394Z,77.60
2023-03-20T15:14:05.907Z,77.40
2023-03-20T15:16:14.642Z,77.10
2023-03-20T15:18:19.546Z,77.20
2023-03-20T15:20:29.358Z,76.00
2023-03-20T15:22:34.263Z,75.10
2023-03-20T15:24:39.133Z,75.90
2023-03-20T15:26:44.469Z,74.90
2023-03-20T15:28:50.035Z,74.00
2023-03-20T15:31:01.731Z,75.00
2023-03-20T15:33:07.580Z,74.20
2023-03-20T15:35:17.369Z,74.10
2023-03-20T15:37:27.134Z,73.10
2023-03-20T15:39:44.649Z,74.10
2023-03-20T15:41:54.759Z,73.80
2023-03-20T15:44:18.068Z,73.20
2023-03-20T15:46:32.167Z,73.60
2023-03-20T15:48:37.189Z,72.80
2023-03-20T15:50:45.552Z,72.80
2023-03-20T15:52:53.320Z,72.30
2023-03-20T15:55:00.145Z,72.50
2023-03-20T15:57:07.409Z,72.60
2023-03-20T15:59:16.761Z,72.40
2023-03-20T16:01:24.736Z,72.20
2023-03-20T16:03:34.075Z,72.60
2023-03-20T16:05:39.913Z,70.50
2023-03-20T16:07:45.938Z,68.60
2023-03-20T16:09:54.246Z,66.60
2023-03-20T16:12:02.770Z,66.70
2023-03-20T16:14:09.405Z,66.70
2023-03-20T16:16:18.959Z,65.50
2023-03-20T16:18:25.532Z,65.50
2023-03-20T16:20:39.188Z,65.80
2023-03-20T16:22:46.635Z,67.00
2023-03-20T16:24:55.570Z,66.40
2023-03-20T16:27:01.598Z,65.30
2023-03-20T16:29:08.708Z,65.70
2023-03-20T16:31:20.252Z,65.60
2023-03-20T16:33:25.306Z,65.40
2023-03-20T16:35:45.932Z,64.40
2023-03-20T16:37:56.016Z,64.80
2023-03-20T16:40:18.070Z,63.10
2023-03-20T16:42:28.481Z,63.70
2023-03-20T16:44:38.133Z,63.10
2023-03-20T16:47:00.717Z,64.30
2023-03-20T16:49:52.568Z,63.80
2023-03-20T16:52:03.115Z,62.80
2023-03-20T16:54:08.642Z,63.00
2023-03-20T16:56:20.055Z,63.70
2023-03-20T16:58:27.795Z,63.20
2023-03-20T17:00:36.241Z,61.10
2023-03-20T17:02:43.500Z,61.30
2023-03-20T17:04:51.370Z,62.30
2023-03-20T17:06:58.779Z,60.50
2023-03-20T17:09:27.313Z,61.30
2023-03-20T17:11:36.934Z,62.40
2023-03-20T17:13:43.970Z,61.80
2023-03-20T17:15:49.239Z,63.20
2023-03-20T17:17:54.484Z,62.20
2023-03-20T17:20:01.632Z,61.80
2023-03-20T17:22:14.611Z,62.30
2023-03-20T17:24:22.454Z,63.50
2023-03-20T17:26:27.898Z,64.70
2023-03-20T17:28:37.563Z,64.80
2023-03-20T17:30:43.048Z,66.10
2023-03-20T17:32:48.520Z,67.00
2023-03-20T17:34:54.048Z,67.40
2023-03-20T17:37:01.376Z,68.70
2023-03-20T17:39:06.851Z,69.00
2023-03-20T17:41:17.777Z,70.30
2023-03-20T17:43:23.652Z,71.40
2023-03-20T17:45:28.578Z,72.30
2023-03-20T17:47:34.015Z,72.50
2023-03-20T17:49:39.176Z,72.50
2023-03-20T17:51:44.385Z,73.50
2023-03-20T17:53:55.105Z,73.90
2023-03-20T17:56:00.301Z,74.70
2023-03-20T17:58:07.762Z,76.00
2023-03-20T18:00:20.497Z,76.50
2023-03-20T18:02:25.458Z,76.30
2023-03-20T18:04:30.636Z,76.00
2023-03-20T18:06:37.267Z,77.60
2023-03-20T18:08:42.162Z,77.90
2023-03-20T18:10:47.922Z,78.20
2023-03-20T18:12:53.050Z,77.40
2023-03-20T18:15:00.801Z,79.30
2023-03-20T18:17:05.835Z,80.10
2023-03-20T18:19:17.352Z,80.00
2023-03-20T18:21:23.646Z,80.40
2023-03-20T18:23:28.846Z,80.50
2023-03-20T18:25:34.171Z,80.30
2023-03-20T18:27:39.048Z,80.40
2023-03-20T18:29:44.415Z,80.40
2023-03-20T18:31:53.146Z,79.90
2023-03-20T18:33:58.437Z,80.40
2023-03-20T18:36:03.781Z,79.00
2023-03-20T18:38:08.742Z,80.50
2023-03-20T18:40:26.003Z,80.00
2023-03-20T18:42:31.396Z,78.50
2023-03-20T18:44:36.680Z,81.10
2023-03-20T18:46:42.193Z,78.10
2023-03-20T18:48:50.876Z,79.20
2023-03-20T18:51:01.056Z,78.50
2023-03-20T18:53:08.743Z,79.40
2023-03-20T18:55:13.717Z,80.50
2023-03-20T18:57:18.857Z,81.40
2023-03-20T18:59:23.872Z,82.20
2023-03-20T19:01:29.410Z,82.50
2023-03-20T19:03:39.272Z,83.10
2023-03-20T19:05:47.097Z,83.60
2023-03-20T19:07:52.902Z,83.70
2023-03-20T19:09:57.766Z,83.80
2023-03-20T19:12:03.284Z,82.90
2023-03-20T19:14:08.261Z,83.30
2023-03-20T19:16:24.498Z,83.70
2023-03-20T19:18:30.045Z,84.70
2023-03-20T19:20:39.960Z,84.70
2023-03-20T19:22:47.676Z,85.10
2023-03-20T19:24:52.865Z,85.20
2023-03-20T19:26:58.228Z,85.90
2023-03-20T19:29:08.304Z,85.90
2023-03-20T19:31:14.913Z,84.90
2023-03-20T19:33:20.181Z,85.00
2023-03-20T19:37:53.649Z,85.90
2023-03-20T19:39:58.565Z,85.10
2023-03-20T19:42:19.952Z,85.50
2023-03-20T19:44:31.068Z,85.70
2023-03-20T19:46:41.183Z,85.30
2023-03-20T19:48:51.177Z,85.90
2023-03-20T19:50:58.199Z,85.60
2023-03-20T19:53:10.598Z,85.70
2023-03-20T19:55:16.184Z,85.80
2023-03-20T19:57:21.076Z,86.10
2023-03-20T19:59:26.161Z,86.50
2023-03-20T20:01:31.470Z,86.70
2023-03-20T20:03:37.111Z,86.70
2023-03-20T20:05:42.394Z,86.50
2023-03-20T20:08:16.935Z,86.70
2023-03-20T20:10:15.393Z,87.50
2023-03-20T20:12:20.307Z,88.10
2023-03-20T20:14:25.156Z,87.90
2023-03-20T20:16:30.557Z,87.90
2023-03-20T20:18:35.718Z,88.30
2023-03-20T20:21:27.322Z,88.40
2023-03-20T20:23:12.629Z,88.70
2023-03-20T20:25:23.124Z,88.70
2023-03-20T20:27:29.186Z,89.00
2023-03-20T20:29:34.396Z,89.30
2023-03-20T20:31:39.623Z,89.10
2023-03-20T20:34:01.148Z,89.20
2023-03-20T20:38:50.457Z,89.30
2023-03-20T20:40:58.716Z,89.70
2023-03-20T20:43:10.036Z,90.10
2023-03-20T20:45:16.353Z,89.20
2023-03-20T20:47:21.355Z,89.40
2023-03-20T20:49:27.597Z,89.60
2023-03-20T20:51:33.036Z,89.20
2023-03-20T20:53:37.909Z,89.60
2023-03-20T20:55:42.827Z,89.60
2023-03-20T20:57:51.349Z,89.80
2023-03-20T20:59:59.753Z,89.40
2023-03-20T21:02:10.497Z,89.40
2023-03-20T21:04:15.675Z,89.20
2023-03-20T21:06:21.510Z,88.90
2023-03-20T21:08:27.456Z,89.20
2023-03-20T21:10:32.372Z,89.30
2023-03-20T21:12:51.984Z,89.30
2023-03-20T21:15:06.841Z,89.50
2023-03-20T21:17:13.025Z,89.80
2023-03-20T21:19:18.236Z,90.00
2023-03-20T21:21:23.123Z,89.90
2023-03-20T21:23:28.404Z,90.00
2023-03-20T21:25:40.554Z,90.20
2023-03-20T21:27:46.411Z,90.20
2023-03-20T21:29:52.777Z,90.10
2023-03-20T21:32:00.429Z,89.90
2023-03-20T21:34:06.147Z,89.90
2023-03-20T21:36:11.841Z,90.00
2023-03-20T21:40:43.073Z,90.30
2023-03-20T21:42:48.685Z,90.10
2023-03-20T21:45:46.240Z,90.00
2023-03-20T21:55:45.482Z,89.70
2023-03-20T21:57:49.235Z,89.70
2023-03-20T22:00:06.837Z,89.60
2023-03-20T22:02:10.701Z,89.60
2023-03-20T22:07:35.972Z,89.30
2023-03-20T22:19:45.984Z,88.90
2023-03-20T22:21:58.982Z,88.70
2023-03-20T22:27:07.255Z,89.00
2023-03-20T22:29:28.626Z,88.80
2023-03-20T22:46:05.553Z,90.00
2023-03-20T22:48:16.604Z,90.00
2023-03-20T22:50:22.014Z,89.90
2023-03-20T22:52:41.780Z,90.50
2023-03-20T22:54:53.952Z,90.20
2023-03-20T22:56:58.802Z,90.50
2023-03-20T22:59:04.886Z,90.20
2023-03-20T23:01:11.849Z,89.60
2023-03-20T23:03:33.353Z,89.70
2023-03-20T23:05:44.172Z,90.10
2023-03-20T23:07:49.136Z,89.60
2023-03-20T23:09:56.922Z,90.20
2023-03-20T23:12:01.822Z,90.10
2023-03-20T23:14:18.231Z,90.30
2023-03-20T23:16:26.009Z,90.10
2023-03-20T23:18:31.054Z,90.20
2023-03-20T23:20:36.857Z,90.30
2023-03-20T23:22:42.268Z,90.60
2023-03-20T23:24:48.371Z,90.20
2023-03-20T23:26:56.977Z,90.00
2023-03-20T23:29:03.435Z,90.30
2023-03-20T23:31:12.129Z,90.20
2023-03-20T23:33:17.858Z,90.30
2023-03-20T23:35:23.543Z,90.30
2023-03-20T23:37:28.555Z,90.50
2023-03-20T23:39:33.426Z,90.60
2023-03-20T23:42:09.898Z,90.00
2023-03-20T23:44:06.780Z,89.80
2023-03-20T23:46:13.242Z,89.90
2023-03-20T23:48:18.733Z,89.70
2023-03-20T23:50:31.928Z,89.40
2023-03-20T23:52:53.401Z,89.20
2023-03-20T23:55:02.228Z,89.20
2023-03-20T23:57:07.404Z,88.80
